Time;durP1;ratioP1;P1;durP2;ratioP2;P2;SDS_P1;SDS_P2;PMS_P1;PMS_P2;Temp;Humidity;BMP_temperature;BMP_pressure;BME280_temperature;BME280_humidity;BME280_pressure;Samples;Min_cycle;Max_cycle;Signal;HPM_P1;HPM_P2
2023/03/11 00:01:42;;;;;;;6.55;1.60;;;26.60;99.90;;;;;;5071876;28;20220;-79
2023/03/11 00:04:13;;;;;;;5.63;1.88;;;26.80;99.90;;;;;;5071833;28;20208;-78
2023/03/11 00:06:44;;;;;;;6.80;1.70;;;26.90;99.90;;;;;;5064893;28;20212;-80
2023/03/11 00:09:15;;;;;;;8.32;1.70;;;27.00;99.90;;;;;;5053988;28;20205;-79
2023/03/11 00:11:47;;;;;;;8.80;1.88;;;26.90;99.90;;;;;;5067916;28;20193;-79
2023/03/11 00:14:18;;;;;;;6.68;1.88;;;27.00;99.90;;;;;;5072552;28;20205;-80
2023/03/11 00:16:51;;;;;;;5.13;1.60;;;27.00;99.90;;;;;;5074171;28;20193;-79
2023/03/11 00:19:23;;;;;;;7.80;2.10;;;27.00;99.90;;;;;;5069391;28;20197;-79
2023/03/11 00:21:54;;;;;;;6.28;1.70;;;27.10;99.90;;;;;;5073835;28;20200;-79
2023/03/11 00:24:25;;;;;;;5.60;1.80;;;27.20;99.90;;;;;;5061767;28;20213;-79
2023/03/11 00:26:56;;;;;;;4.57;1.50;;;27.40;99.90;;;;;;5073236;28;20231;-79
2023/03/11 00:29:27;;;;;;;5.63;1.70;;;27.50;99.90;;;;;;5068578;28;20233;-81
2023/03/11 00:32:00;;;;;;;7.55;1.73;;;27.70;99.90;;;;;;5072073;28;20194;-80
2023/03/11 00:34:31;;;;;;;7.00;1.77;;;27.70;99.90;;;;;;5058602;28;20206;-80
2023/03/11 00:37:02;;;;;;;5.07;1.48;;;27.80;99.90;;;;;;5067577;28;20200;-80
2023/03/11 00:39:33;;;;;;;4.45;1.50;;;27.90;99.90;;;;;;5060902;28;20194;-80
2023/03/11 00:42:05;;;;;;;7.22;1.60;;;28.10;99.90;;;;;;5068869;28;20199;-81
2023/03/11 00:44:37;;;;;;;7.47;1.80;;;28.20;99.90;;;;;;5071603;28;20255;-81
2023/03/11 00:47:10;;;;;;;4.35;1.50;;;28.20;99.90;;;;;;5065882;28;20201;-80
2023/03/11 00:49:41;;;;;;;7.53;1.80;;;28.40;99.90;;;;;;5068512;28;20196;-78
2023/03/11 00:52:12;;;;;;;5.75;1.50;;;28.40;99.90;;;;;;5063687;28;20966;-79
2023/03/11 00:54:45;;;;;;;6.22;1.70;;;28.50;99.90;;;;;;5070063;28;20571;-78
2023/03/11 00:57:16;;;;;;;4.53;1.90;;;28.60;99.90;;;;;;5071429;28;20196;-79
2023/03/11 00:59:47;;;;;;;7.25;1.50;;;28.70;99.90;;;;;;5055955;28;20197;-78
2023/03/11 01:02:20;;;;;;;6.35;1.52;;;28.80;99.90;;;;;;5061610;28;20197;-78
2023/03/11 01:04:54;;;;;;;5.97;1.65;;;28.90;99.90;;;;;;5056685;28;20221;-79
2023/03/11 01:07:25;;;;;;;4.43;1.77;;;29.00;99.90;;;;;;5071809;28;20648;-79
2023/03/11 01:09:56;;;;;;;7.65;1.70;;;29.00;99.90;;;;;;5055523;28;20298;-79
2023/03/11 01:12:27;;;;;;;8.32;1.65;;;29.00;99.90;;;;;;5062878;28;20657;-82
2023/03/11 01:14:59;;;;;;;7.13;1.52;;;29.20;99.90;;;;;;5062429;28;20193;-80
2023/03/11 01:17:32;;;;;;;3.17;1.50;;;29.40;99.90;;;;;;5068608;28;20208;-80
2023/03/11 01:20:04;;;;;;;7.03;1.50;;;29.40;99.90;;;;;;5053113;28;20197;-81
2023/03/11 01:22:36;;;;;;;4.35;1.50;;;29.60;99.90;;;;;;5065597;28;20192;-80
2023/03/11 01:25:08;;;;;;;5.63;1.45;;;29.60;99.90;;;;;;5058904;28;20221;-79
2023/03/11 01:27:39;;;;;;;6.38;1.63;;;29.60;99.90;;;;;;5078598;28;20715;-80
2023/03/11 01:30:14;;;;;;;6.20;1.70;;;29.70;99.90;;;;;;5069197;28;20236;-79
2023/03/11 01:32:48;;;;;;;6.80;1.95;;;29.80;99.90;;;;;;5061756;28;20201;-79
2023/03/11 01:35:20;;;;;;;5.03;1.58;;;29.80;99.90;;;;;;5066607;28;20189;-79
2023/03/11 01:37:51;;;;;;;4.45;1.52;;;29.90;99.90;;;;;;5065131;28;20212;-78
2023/03/11 01:40:27;;;;;;;3.33;1.50;;;30.00;99.90;;;;;;5070478;28;20212;-80
2023/03/11 01:42:59;;;;;;;3.45;1.50;;;30.20;99.90;;;;;;5068974;28;20232;-79
2023/03/11 01:45:42;;;;;;;6.13;1.50;;;30.30;99.90;;;;;;5062308;28;20228;-82
2023/03/11 01:48:17;;;;;;;3.63;1.23;;;30.40;99.90;;;;;;5061672;28;20192;-79
2023/03/11 01:50:51;;;;;;;3.53;1.20;;;30.50;99.90;;;;;;5069403;28;20193;-79
2023/03/11 01:53:23;;;;;;;5.75;1.58;;;30.60;99.90;;;;;;5056618;28;20208;-79
2023/03/11 01:55:54;;;;;;;4.93;1.52;;;30.70;99.90;;;;;;5069715;28;20201;-79
2023/03/11 01:58:29;;;;;;;3.17;1.60;;;30.70;99.90;;;;;;5073777;28;20196;-79
2023/03/11 02:01:01;;;;;;;4.63;1.30;;;30.50;99.90;;;;;;5071876;28;20189;-79
2023/03/11 02:03:36;;;;;;;4.90;1.38;;;30.30;99.90;;;;;;5071278;28;20205;-80
2023/03/11 02:06:10;;;;;;;4.18;1.67;;;30.30;99.90;;;;;;5065692;28;20212;-79
2023/03/11 02:08:42;;;;;;;4.57;1.48;;;30.20;99.90;;;;;;5069817;28;20203;-79
2023/03/11 02:11:18;;;;;;;5.78;1.30;;;30.10;99.90;;;;;;5078493;28;20200;-79
2023/03/11 02:13:50;;;;;;;4.53;1.40;;;30.20;99.90;;;;;;5063155;28;20197;-78
2023/03/11 02:16:21;;;;;;;4.75;1.42;;;30.40;99.90;;;;;;5067012;28;20200;-81
2023/03/11 02:18:56;;;;;;;6.65;1.42;;;30.60;99.90;;;;;;5062467;28;20204;-79
2023/03/11 02:21:28;;;;;;;2.72;1.30;;;30.60;99.90;;;;;;5072370;28;20193;-79
2023/03/11 02:24:07;;;;;;;9.93;1.60;;;30.60;99.90;;;;;;5067264;28;20193;-80
2023/03/11 02:26:45;;;;;;;4.63;1.60;;;30.70;99.90;;;;;;5072704;28;20195;-80
2023/03/11 02:29:20;;;;;;;9.07;1.77;;;30.90;99.90;;;;;;5087607;28;20199;-79
2023/03/11 02:31:52;;;;;;;5.53;1.90;;;31.00;99.90;;;;;;5066417;22;20233;-78
2023/03/11 02:34:27;;;;;;;4.25;1.70;;;30.80;99.90;;;;;;5044431;28;20193;-78
2023/03/11 02:36:58;;;;;;;7.25;2.10;;;30.90;99.90;;;;;;5045032;28;20193;-79
2023/03/11 02:39:38;;;;;;;6.43;1.70;;;31.00;99.90;;;;;;5055878;28;20190;-79
2023/03/11 02:42:14;;;;;;;4.97;1.70;;;31.00;99.90;;;;;;5050893;28;20648;-78
2023/03/11 02:44:52;;;;;;;14.57;3.95;;;30.90;99.90;;;;;;5054433;28;20213;-79
2023/03/11 02:47:25;;;;;;;6.18;1.92;;;31.10;99.90;;;;;;5048849;28;20272;-79
2023/03/11 02:49:58;;;;;;;5.55;1.80;;;31.10;99.90;;;;;;5054550;28;20201;-79
2023/03/11 02:52:33;;;;;;;7.63;2.15;;;31.00;99.90;;;;;;5053025;28;20566;-78
2023/03/11 02:55:06;;;;;;;5.70;1.65;;;31.00;99.90;;;;;;5051159;28;20209;-79
2023/03/11 02:57:39;;;;;;;6.07;1.80;;;31.00;99.90;;;;;;5052796;28;20212;-80
2023/03/11 03:00:16;;;;;;;4.20;1.40;;;30.80;99.90;;;;;;5050323;28;20567;-80
2023/03/11 03:02:50;;;;;;;5.88;1.80;;;30.80;99.90;;;;;;5055134;28;20190;-79
2023/03/11 03:05:23;;;;;;;7.90;2.20;;;30.80;99.90;;;;;;5047938;28;20224;-81
2023/03/11 03:07:54;;;;;;;6.13;1.83;;;30.70;99.90;;;;;;5055861;28;20200;-83
2023/03/11 03:10:26;;;;;;;7.70;1.65;;;30.60;99.90;;;;;;5049425;28;20201;-79
2023/03/11 03:12:58;;;;;;;9.38;1.90;;;30.60;99.90;;;;;;5054706;28;20667;-80
2023/03/11 03:15:31;;;;;;;3.97;1.42;;;30.50;99.90;;;;;;5053761;28;20186;-81
2023/03/11 03:18:02;;;;;;;5.72;1.77;;;30.50;99.90;;;;;;5050743;28;20202;-80
2023/03/11 03:20:33;;;;;;;6.95;1.77;;;30.50;99.90;;;;;;5050448;28;20196;-80
2023/03/11 03:23:05;;;;;;;5.70;1.77;;;30.60;99.90;;;;;;5051057;28;20198;-80
2023/03/11 03:25:36;;;;;;;5.95;2.03;;;30.60;99.90;;;;;;5055020;28;20217;-80
2023/03/11 03:28:07;;;;;;;5.80;1.58;;;30.70;99.90;;;;;;5052118;28;20197;-81
2023/03/11 03:30:41;;;;;;;4.43;1.50;;;30.70;99.90;;;;;;5051348;28;20200;-79
2023/03/11 03:33:12;;;;;;;4.57;1.73;;;30.60;99.90;;;;;;5048034;28;20680;-82
2023/03/11 03:35:45;;;;;;;9.27;1.70;;;30.50;99.90;;;;;;5033374;28;20560;-81
2023/03/11 03:38:17;;;;;;;6.07;1.83;;;30.30;99.90;;;;;;5015197;28;20196;-81
2023/03/11 03:40:50;;;;;;;5.07;1.70;;;30.10;99.90;;;;;;5029480;28;20206;-79
2023/03/11 03:43:22;;;;;;;4.88;1.90;;;30.00;99.90;;;;;;5036026;28;20217;-80
2023/03/11 03:46:05;;;;;;;7.32;1.95;;;30.00;99.90;;;;;;5024785;28;20230;-79
2023/03/11 03:48:38;;;;;;;5.68;1.60;;;30.20;99.90;;;;;;5034339;28;20198;-79
2023/03/11 03:51:10;;;;;;;7.00;1.85;;;30.30;99.90;;;;;;5033995;28;20202;-79
2023/03/11 03:53:45;;;;;;;9.48;2.22;;;30.20;99.90;;;;;;5029339;28;20198;-81
2023/03/11 03:56:18;;;;;;;7.45;1.80;;;30.30;99.90;;;;;;5032578;28;20276;-80
2023/03/11 03:58:49;;;;;;;5.80;1.88;;;30.20;99.90;;;;;;5032632;28;20285;-81
2023/03/11 04:01:23;;;;;;;8.02;1.80;;;30.30;99.90;;;;;;5032775;28;20201;-80
2023/03/11 04:03:54;;;;;;;7.43;1.67;;;30.20;99.90;;;;;;5031836;28;20201;-81
2023/03/11 04:06:26;;;;;;;5.32;2.00;;;30.20;99.90;;;;;;5034159;28;20217;-79
2023/03/11 04:08:58;;;;;;;4.80;1.88;;;30.20;99.90;;;;;;5034389;28;20213;-80
2023/03/11 04:11:29;;;;;;;5.45;1.80;;;30.20;99.90;;;;;;5032881;28;20293;-80
2023/03/11 04:14:01;;;;;;;5.22;1.90;;;30.30;99.90;;;;;;5014173;28;20206;-80
2023/03/11 04:16:34;;;;;;;7.72;2.00;;;30.30;99.90;;;;;;5034731;28;20703;-79
2023/03/11 04:19:05;;;;;;;10.20;2.30;;;30.10;99.90;;;;;;5054126;28;20185;-80
2023/03/11 04:21:36;;;;;;;4.97;1.63;;;30.00;99.90;;;;;;5034309;28;20660;-81
2023/03/11 04:24:08;;;;;;;5.88;2.00;;;30.00;99.90;;;;;;5050568;28;20193;-79
2023/03/11 04:26:39;;;;;;;6.78;1.80;;;29.90;99.90;;;;;;5028758;28;20210;-79
2023/03/11 04:29:10;;;;;;;4.45;1.60;;;29.90;99.90;;;;;;5032721;28;20545;-80
2023/03/11 04:31:43;;;;;;;4.85;1.80;;;29.90;99.90;;;;;;5030804;28;20960;-80
2023/03/11 04:34:14;;;;;;;7.57;1.98;;;29.70;99.90;;;;;;5014191;28;20191;-79
2023/03/11 04:36:45;;;;;;;7.13;2.08;;;29.50;99.90;;;;;;5025668;28;20859;-79
2023/03/11 04:39:18;;;;;;;6.50;1.77;;;29.50;99.90;;;;;;5042500;28;20671;-80
2023/03/11 04:41:49;;;;;;;7.40;2.00;;;29.40;99.90;;;;;;5040142;28;20198;-81
2023/03/11 04:44:21;;;;;;;6.22;1.95;;;29.40;99.90;;;;;;5035079;28;20198;-80
2023/03/11 04:46:54;;;;;;;4.50;1.90;;;29.40;99.90;;;;;;5045794;28;20225;-81
2023/03/11 04:49:25;;;;;;;5.57;1.70;;;29.40;99.90;;;;;;5044309;28;20217;-81
2023/03/11 04:51:56;;;;;;;7.15;1.77;;;29.30;99.90;;;;;;5044004;28;20508;-80
2023/03/11 04:54:27;;;;;;;8.55;1.88;;;29.30;99.90;;;;;;5043827;28;20641;-81
2023/03/11 04:56:58;;;;;;;4.80;1.75;;;29.30;99.90;;;;;;5031700;28;20225;-80
2023/03/11 04:59:30;;;;;;;5.25;1.88;;;29.30;99.90;;;;;;5033277;28;20186;-82
2023/03/11 05:02:03;;;;;;;6.20;1.88;;;29.40;99.90;;;;;;5029457;28;20198;-82
2023/03/11 05:04:34;;;;;;;7.72;2.30;;;29.20;99.90;;;;;;5038756;28;20197;-84
2023/03/11 05:07:05;;;;;;;5.65;2.25;;;29.10;99.90;;;;;;5030885;28;20228;-79
2023/03/11 05:09:38;;;;;;;9.60;2.60;;;28.90;99.90;;;;;;5032952;28;20205;-80
2023/03/11 05:12:09;;;;;;;6.53;1.77;;;28.90;99.90;;;;;;5040144;28;20305;-80
2023/03/11 05:14:40;;;;;;;6.18;2.03;;;28.90;99.90;;;;;;5013608;28;20202;-79
2023/03/11 05:17:13;;;;;;;9.45;2.20;;;28.80;99.90;;;;;;5031563;28;20201;-80
2023/03/11 05:19:44;;;;;;;5.88;2.17;;;28.60;99.90;;;;;;5033430;28;20197;-80
2023/03/11 05:22:16;;;;;;;7.25;2.30;;;28.50;99.90;;;;;;5032431;28;20217;-80
2023/03/11 05:24:47;;;;;;;7.18;2.45;;;28.50;99.90;;;;;;5029670;28;20901;-79
2023/03/11 05:27:19;;;;;;;5.20;2.10;;;28.60;99.90;;;;;;5048336;28;20248;-79
2023/03/11 05:29:52;;;;;;;5.72;2.10;;;28.40;99.90;;;;;;5038573;28;20604;-79
2023/03/11 05:32:26;;;;;;;4.68;2.22;;;28.40;99.90;;;;;;5036121;28;20242;-80
2023/03/11 05:34:57;;;;;;;8.15;2.00;;;28.40;99.90;;;;;;5033759;28;20205;-80
2023/03/11 05:37:28;;;;;;;5.07;2.05;;;28.50;99.90;;;;;;5037287;28;20213;-80
2023/03/11 05:39:59;;;;;;;7.10;2.35;;;28.50;99.90;;;;;;5039977;28;20198;-79
2023/03/11 05:42:30;;;;;;;7.85;2.30;;;28.30;99.90;;;;;;5033238;28;20205;-78
2023/03/11 05:45:01;;;;;;;4.20;2.05;;;28.30;99.90;;;;;;5036889;28;20194;-79
2023/03/11 05:47:37;;;;;;;4.15;1.70;;;28.20;99.90;;;;;;5032788;28;20202;-80
2023/03/11 05:50:09;;;;;;;5.18;2.00;;;28.20;99.90;;;;;;5036431;28;20671;-78
2023/03/11 05:52:40;;;;;;;4.00;1.88;;;28.10;99.90;;;;;;5034114;28;20198;-79
2023/03/11 05:55:12;;;;;;;8.70;2.03;;;28.10;99.90;;;;;;5033628;28;20204;-81
2023/03/11 05:57:43;;;;;;;4.72;1.90;;;28.10;99.90;;;;;;5049685;28;20194;-80
2023/03/11 06:00:15;;;;;;;9.85;1.90;;;28.00;99.90;;;;;;5034592;28;20210;-81
2023/03/11 06:02:49;;;;;;;5.82;2.00;;;28.00;99.90;;;;;;5043929;28;20205;-81
2023/03/11 06:05:21;;;;;;;11.77;2.20;;;27.90;99.90;;;;;;5039923;28;20197;-82
2023/03/11 06:07:52;;;;;;;7.55;1.73;;;27.90;99.90;;;;;;5054854;28;20216;-80
2023/03/11 06:10:23;;;;;;;4.78;1.80;;;27.90;99.90;;;;;;5045796;28;20194;-79
2023/03/11 06:12:55;;;;;;;5.57;2.08;;;27.90;99.90;;;;;;5042117;28;20198;-88
2023/03/11 06:15:26;;;;;;;7.90;2.33;;;27.90;99.90;;;;;;5042957;28;20652;-80
2023/03/11 06:17:59;;;;;;;6.63;2.40;;;27.90;99.90;;;;;;5035465;28;20194;-82
2023/03/11 06:20:30;;;;;;;4.75;1.80;;;27.80;99.90;;;;;;5052107;28;20197;-79
2023/03/11 06:23:01;;;;;;;6.43;1.98;;;27.70;99.90;;;;;;5035557;28;20554;-80
2023/03/11 06:25:32;;;;;;;7.50;2.38;;;27.70;99.90;;;;;;5037344;28;20253;-80
2023/03/11 06:28:03;;;;;;;7.95;2.35;;;27.50;99.90;;;;;;5040334;28;20538;-79
2023/03/11 06:30:36;;;;;;;7.00;2.25;;;27.50;99.90;;;;;;5035562;28;20190;-80
2023/03/11 06:33:09;;;;;;;4.78;2.40;;;27.40;99.90;;;;;;5045027;28;20234;-79
2023/03/11 06:35:40;;;;;;;10.70;2.22;;;27.40;99.90;;;;;;5048480;28;20212;-79
2023/03/11 06:38:11;;;;;;;5.80;2.00;;;27.40;99.90;;;;;;5034585;28;20194;-79
2023/03/11 06:40:43;;;;;;;7.95;1.92;;;27.30;99.90;;;;;;5040262;28;20212;-81
2023/03/11 06:43:14;;;;;;;8.48;2.08;;;27.30;99.90;;;;;;5049306;28;20206;-80
2023/03/11 06:45:46;;;;;;;11.00;2.17;;;27.40;99.90;;;;;;5030593;28;20229;-81
2023/03/11 06:48:19;;;;;;;7.30;2.40;;;27.40;99.90;;;;;;5032826;28;20198;-80
2023/03/11 06:50:57;;;;;;;9.90;2.50;;;27.40;99.90;;;;;;5026711;28;20202;-79
2023/03/11 06:53:29;;;;;;;8.98;2.40;;;27.40;99.90;;;;;;5046416;28;20228;-79
2023/03/11 06:56:04;;;;;;;5.07;1.95;;;27.40;99.90;;;;;;5049785;28;20199;-79
2023/03/11 06:58:36;;;;;;;5.50;1.90;;;27.30;99.90;;;;;;5036991;28;20197;-79
2023/03/11 07:01:08;;;;;;;10.93;2.35;;;27.20;99.90;;;;;;5055621;28;20194;-80
2023/03/11 07:03:41;;;;;;;8.88;2.15;;;27.20;99.90;;;;;;5032719;28;20194;-79
2023/03/11 07:06:16;;;;;;;6.32;2.10;;;27.10;99.90;;;;;;5036898;28;20225;-80
2023/03/11 07:08:48;;;;;;;10.15;2.60;;;27.00;99.90;;;;;;5033664;28;20648;-79
2023/03/11 07:11:21;;;;;;;7.43;2.20;;;27.00;99.90;;;;;;5055264;28;20189;-79
2023/03/11 07:13:52;;;;;;;10.18;2.20;;;27.00;99.90;;;;;;5044456;28;20201;-79
2023/03/11 07:16:25;;;;;;;6.65;1.83;;;27.00;99.90;;;;;;5036047;28;20209;-79
2023/03/11 07:18:59;;;;;;;6.28;1.88;;;26.90;99.90;;;;;;5051935;28;20189;-79
2023/03/11 07:21:31;;;;;;;5.63;2.00;;;26.90;99.90;;;;;;5034709;28;20201;-79
2023/03/11 07:24:04;;;;;;;4.70;2.00;;;26.80;99.90;;;;;;5031309;28;20564;-79
2023/03/11 07:26:36;;;;;;;7.57;2.05;;;26.70;99.90;;;;;;5032461;28;20669;-79
2023/03/11 07:29:07;;;;;;;7.80;2.40;;;26.70;99.90;;;;;;5043228;28;20244;-79
2023/03/11 07:31:40;;;;;;;7.57;2.13;;;26.60;99.90;;;;;;5033432;28;20230;-81
2023/03/11 07:34:15;;;;;;;5.75;2.08;;;26.50;99.90;;;;;;5017525;28;20205;-81
2023/03/11 07:36:53;;;;;;;7.35;2.47;;;26.50;99.90;;;;;;5029930;28;20198;-82
2023/03/11 07:39:24;;;;;;;7.15;2.10;;;26.50;99.90;;;;;;5031991;28;20200;-81
2023/03/11 07:41:55;;;;;;;7.97;2.35;;;26.50;99.90;;;;;;5023663;28;20205;-79
2023/03/11 07:44:26;;;;;;;4.38;1.70;;;26.40;99.90;;;;;;5031544;28;20202;-78
2023/03/11 07:46:57;;;;;;;9.88;2.10;;;26.40;99.90;;;;;;5031436;28;20220;-81
2023/03/11 07:49:30;;;;;;;5.53;2.03;;;26.40;99.90;;;;;;5031822;28;20202;-79
2023/03/11 07:52:01;;;;;;;6.10;2.00;;;26.40;99.90;;;;;;5021534;28;20206;-79
2023/03/11 07:54:32;;;;;;;7.38;2.10;;;26.30;99.90;;;;;;5029751;28;20670;-79
2023/03/11 07:57:03;;;;;;;7.85;1.90;;;26.30;99.90;;;;;;5045091;28;20652;-81
2023/03/11 07:59:34;;;;;;;10.48;2.05;;;26.30;99.90;;;;;;5041165;28;20749;-80
2023/03/11 08:02:06;;;;;;;5.50;1.90;;;26.30;99.90;;;;;;5033062;28;20588;-80
2023/03/11 08:04:39;;;;;;;8.80;1.95;;;26.30;99.90;;;;;;5036070;28;20197;-80
2023/03/11 08:07:10;;;;;;;10.07;2.40;;;26.20;99.90;;;;;;5033659;28;20210;-80
2023/03/11 08:09:41;;;;;;;8.02;2.25;;;26.20;99.90;;;;;;5031992;28;20198;-79
2023/03/11 08:12:12;;;;;;;8.38;2.38;;;26.20;99.90;;;;;;5033597;28;20202;-78
2023/03/11 08:14:43;;;;;;;7.90;2.33;;;26.20;99.90;;;;;;5033516;28;20198;-80
2023/03/11 08:17:14;;;;;;;6.43;2.53;;;26.20;99.90;;;;;;5019438;28;20425;-78
2023/03/11 08:19:50;;;;;;;8.23;2.50;;;26.20;99.90;;;;;;5028320;28;21849;-79
2023/03/11 08:22:21;;;;;;;6.40;2.15;;;26.20;99.90;;;;;;5037766;28;20198;-79
2023/03/11 08:24:55;;;;;;;5.10;2.17;;;26.20;99.90;;;;;;5033515;28;20209;-78
2023/03/11 08:27:26;;;;;;;8.27;2.35;;;26.20;99.90;;;;;;5034372;28;20308;-78
2023/03/11 08:29:57;;;;;;;12.30;2.80;;;26.10;99.90;;;;;;5030860;28;20573;-80
2023/03/11 08:32:30;;;;;;;9.80;2.50;;;26.10;99.90;;;;;;5032611;28;20257;-79
2023/03/11 08:35:03;;;;;;;5.25;2.33;;;26.10;99.90;;;;;;5028051;28;20198;-78
2023/03/11 08:37:37;;;;;;;8.65;2.35;;;26.10;99.90;;;;;;5033703;28;20194;-79
2023/03/11 08:40:10;;;;;;;5.95;2.70;;;26.00;99.90;;;;;;5030140;28;20199;-79
2023/03/11 08:42:47;;;;;;;5.57;2.67;;;26.00;99.90;;;;;;5033793;28;20206;-79
2023/03/11 08:45:18;;;;;;;5.40;2.70;;;26.00;99.90;;;;;;5033676;28;20194;-79
2023/03/11 08:47:51;;;;;;;9.18;2.80;;;25.90;99.90;;;;;;5027247;28;20218;-79
2023/03/11 08:50:24;;;;;;;6.60;2.72;;;25.90;99.90;;;;;;5031318;28;20649;-78
2023/03/11 08:52:59;;;;;;;7.72;2.90;;;25.90;99.90;;;;;;5027293;28;20205;-78
2023/03/11 08:55:30;;;;;;;4.88;2.63;;;25.90;99.90;;;;;;5043325;28;20192;-79
2023/03/11 08:58:03;;;;;;;5.68;2.67;;;25.80;99.90;;;;;;5030760;28;20217;-78
2023/03/11 09:00:34;;;;;;;4.13;2.45;;;25.80;99.90;;;;;;5032083;28;20566;-78
2023/03/11 09:03:05;;;;;;;7.57;2.75;;;25.80;99.90;;;;;;5033792;28;20256;-78
2023/03/11 09:05:38;;;;;;;6.80;2.80;;;25.80;99.90;;;;;;5032130;28;20194;-79
2023/03/11 09:08:09;;;;;;;6.53;2.50;;;25.70;99.90;;;;;;5020422;28;20225;-78
2023/03/11 09:10:40;;;;;;;6.75;2.85;;;25.70;99.90;;;;;;5028951;28;20194;-80
2023/03/11 09:13:13;;;;;;;4.72;2.20;;;25.70;99.90;;;;;;5032192;28;20205;-78
2023/03/11 09:15:44;;;;;;;4.78;2.25;;;25.70;99.90;;;;;;5031073;28;20281;-78
2023/03/11 09:18:16;;;;;;;6.53;2.28;;;25.70;99.90;;;;;;5032997;28;20209;-80
2023/03/11 09:20:49;;;;;;;4.65;2.35;;;25.70;99.90;;;;;;5028331;28;20199;-78
2023/03/11 09:23:21;;;;;;;3.42;2.08;;;25.70;99.90;;;;;;5031467;28;20201;-82
2023/03/11 09:25:52;;;;;;;6.80;2.30;;;25.60;99.90;;;;;;5032994;28;20202;-77
2023/03/11 09:28:23;;;;;;;5.25;1.98;;;25.60;99.90;;;;;;5031315;28;20595;-80
2023/03/11 09:30:54;;;;;;;2.67;1.77;;;25.60;99.90;;;;;;5035308;28;20723;-78
2023/03/11 09:33:26;;;;;;;7.20;2.30;;;25.60;99.90;;;;;;5026802;28;20222;-78
2023/03/11 09:36:02;;;;;;;7.63;2.20;;;25.60;99.90;;;;;;5031259;28;20202;-79
2023/03/11 09:38:33;;;;;;;5.32;2.20;;;25.60;99.90;;;;;;5032186;28;20202;-79
2023/03/11 09:41:09;;;;;;;5.05;2.00;;;25.60;99.90;;;;;;5032035;28;20213;-79
2023/03/11 09:43:55;;;;;;;6.45;2.08;;;25.50;99.90;;;;;;5033698;28;20213;-79
2023/03/11 09:46:40;;;;;;;6.13;2.10;;;25.50;99.90;;;;;;5030607;28;20194;-79
2023/03/11 09:49:21;;;;;;;4.47;2.00;;;25.40;99.90;;;;;;5029717;28;20217;-78
2023/03/11 09:52:00;;;;;;;5.78;2.58;;;25.40;99.90;;;;;;5035940;28;20197;-78
2023/03/11 09:54:36;;;;;;;5.63;2.30;;;25.40;99.90;;;;;;5024403;28;20198;-78
2023/03/11 09:57:08;;;;;;;5.68;2.45;;;25.40;99.90;;;;;;5029561;28;20566;-78
2023/03/11 09:59:42;;;;;;;7.20;2.70;;;25.40;99.90;;;;;;5032498;28;20199;-78
2023/03/11 10:02:17;;;;;;;6.28;2.45;;;25.40;99.90;;;;;;5031949;28;20193;-79
2023/03/11 10:04:54;;;;;;;4.40;2.17;;;25.30;99.90;;;;;;5032562;28;20198;-78
2023/03/11 10:07:30;;;;;;;7.60;2.55;;;25.30;99.90;;;;;;5027899;28;20222;-78
2023/03/11 10:10:02;;;;;;;6.53;2.42;;;25.30;99.90;;;;;;5030377;28;20212;-78
2023/03/11 10:12:46;;;;;;;4.72;2.50;;;25.30;99.90;;;;;;5035972;28;20285;-79
2023/03/11 10:15:26;;;;;;;5.68;2.30;;;25.30;99.90;;;;;;5033532;28;20201;-78
2023/03/11 10:18:18;;;;;;;5.20;2.13;;;25.30;99.90;;;;;;5036579;28;20568;-78
2023/03/11 10:20:57;;;;;;;7.25;2.55;;;25.20;99.90;;;;;;5032295;28;20221;-78
2023/03/11 10:23:44;;;;;;;5.70;2.40;;;25.30;99.90;;;;;;5032994;28;20193;-79
2023/03/11 10:26:21;;;;;;;6.43;2.40;;;25.20;99.90;;;;;;5036739;28;20203;-79
2023/03/11 10:28:55;;;;;;;5.40;2.13;;;25.30;99.90;;;;;;5038657;28;20228;-78
2023/03/11 10:31:32;;;;;;;8.80;2.30;;;25.30;99.90;;;;;;5035138;28;20226;-78
2023/03/11 10:34:08;;;;;;;3.75;1.90;;;25.30;99.90;;;;;;5030219;28;20211;-79
2023/03/11 10:36:44;;;;;;;6.22;2.30;;;25.20;99.90;;;;;;5055301;28;20657;-78
2023/03/11 10:39:17;;;;;;;5.40;2.30;;;25.20;99.90;;;;;;5052463;28;20201;-78
2023/03/11 10:41:54;;;;;;;4.88;2.10;;;25.20;99.90;;;;;;5049121;28;20205;-78
2023/03/11 10:44:30;;;;;;;6.70;2.35;;;25.20;99.90;;;;;;5049542;28;20197;-79
2023/03/11 10:47:01;;;;;;;5.00;2.35;;;25.20;99.90;;;;;;5031061;28;20215;-78
2023/03/11 10:49:32;;;;;;;8.00;2.55;;;25.20;99.90;;;;;;5038158;28;20198;-79
2023/03/11 10:52:06;;;;;;;9.32;2.60;;;25.10;99.90;;;;;;5035580;28;20206;-79
2023/03/11 10:54:44;;;;;;;8.20;2.65;;;25.10;99.90;;;;;;5023807;28;20197;-78
2023/03/11 10:57:27;;;;;;;7.25;2.60;;;25.10;99.90;;;;;;5052375;28;20717;-78
2023/03/11 11:00:08;;;;;;;5.53;2.50;;;25.10;99.90;;;;;;5046013;28;20202;-78
2023/03/11 11:02:43;;;;;;;5.72;2.55;;;25.00;99.90;;;;;;5016508;28;20195;-78
2023/03/11 11:05:31;;;;;;;8.32;2.70;;;25.00;99.90;;;;;;5033460;28;20213;-79
2023/03/11 11:08:15;;;;;;;6.03;2.55;;;25.00;99.90;;;;;;5046503;28;20631;-78
2023/03/11 11:10:56;;;;;;;9.20;2.70;;;25.00;99.90;;;;;;5055500;28;20189;-78
2023/03/11 11:13:29;;;;;;;7.80;2.20;;;24.90;99.90;;;;;;5055443;28;20197;-78
2023/03/11 11:16:02;;;;;;;5.78;2.60;;;24.90;99.90;;;;;;5052427;28;20202;-78
2023/03/11 11:18:37;;;;;;;8.15;2.40;;;24.90;99.90;;;;;;5032838;28;20660;-79
2023/03/11 11:21:10;;;;;;;5.38;2.40;;;24.90;99.90;;;;;;5050312;28;20205;-78
2023/03/11 11:23:44;;;;;;;6.80;2.65;;;24.80;99.90;;;;;;5033296;28;20534;-78
2023/03/11 11:26:25;;;;;;;8.40;2.72;;;24.80;99.90;;;;;;5028673;28;20195;-78
2023/03/11 11:29:09;;;;;;;6.35;2.72;;;24.80;99.90;;;;;;5041866;28;20221;-78
2023/03/11 11:31:42;;;;;;;8.18;2.53;;;24.80;99.90;;;;;;5041224;28;20220;-78
2023/03/11 11:34:31;;;;;;;10.32;2.85;;;24.80;99.90;;;;;;5044497;28;20786;-78
2023/03/11 11:37:05;;;;;;;6.20;2.85;;;24.80;99.90;;;;;;5037398;28;20202;-78
2023/03/11 11:39:50;;;;;;;7.55;2.60;;;24.80;99.90;;;;;;5042278;28;20260;-78
2023/03/11 11:42:27;;;;;;;9.32;2.80;;;24.80;99.90;;;;;;5045100;28;20284;-78
2023/03/11 11:45:03;;;;;;;7.57;2.45;;;24.80;99.90;;;;;;5049180;28;20194;-78
2023/03/11 11:47:39;;;;;;;4.95;2.40;;;24.80;99.90;;;;;;5042601;28;20245;-78
2023/03/11 11:50:19;;;;;;;6.57;2.47;;;24.80;99.90;;;;;;5044371;28;20231;-78
2023/03/11 11:52:56;;;;;;;8.32;2.45;;;24.80;99.90;;;;;;5047189;28;20204;-78
2023/03/11 11:55:29;;;;;;;7.80;2.53;;;24.80;99.90;;;;;;5036435;28;20202;-78
2023/03/11 11:58:02;;;;;;;5.15;2.35;;;24.80;99.90;;;;;;5044892;28;20656;-79
2023/03/11 12:00:45;;;;;;;7.70;2.42;;;24.80;99.90;;;;;;5039306;28;20259;-78
2023/03/11 12:03:42;;;;;;;6.82;2.83;;;24.90;99.90;;;;;;5038148;28;20197;-78
2023/03/11 12:06:22;;;;;;;6.82;3.03;;;24.90;99.90;;;;;;5040760;28;20229;-78
2023/03/11 12:09:04;;;;;;;10.90;3.00;;;24.90;99.90;;;;;;5036816;28;20465;-78
2023/03/11 12:11:41;;;;;;;10.07;3.00;;;24.90;99.90;;;;;;5047740;28;20595;-78
2023/03/11 12:14:19;;;;;;;10.20;2.85;;;24.90;99.90;;;;;;5051717;28;20203;-79
2023/03/11 12:16:57;;;;;;;8.23;3.15;;;24.90;99.90;;;;;;5051073;28;20201;-79
2023/03/11 12:19:38;;;;;;;12.45;3.40;;;24.90;99.90;;;;;;5046192;28;20287;-79
2023/03/11 12:22:32;;;;;;;16.17;3.22;;;24.90;99.90;;;;;;5045966;28;20201;-79
2023/03/11 12:25:20;;;;;;;15.80;3.70;;;24.90;99.90;;;;;;5038935;28;20209;-79
2023/03/11 12:27:55;;;;;;;18.45;3.33;;;24.80;99.90;;;;;;5014131;28;20215;-78
2023/03/11 12:30:31;;;;;;;21.05;3.67;;;24.80;99.90;;;;;;5014265;28;20739;-78
2023/03/11 12:33:05;;;;;;;17.70;3.83;;;24.80;99.90;;;;;;5032090;28;20239;-78
2023/03/11 12:35:37;;;;;;;24.15;4.60;;;24.70;99.90;;;;;;5053619;28;20189;-79
2023/03/11 12:38:18;;;;;;;19.88;3.97;;;24.60;99.90;;;;;;5035547;28;20202;-79
2023/03/11 12:41:02;;;;;;;24.73;3.95;;;24.60;99.90;;;;;;5033205;28;20205;-79
2023/03/11 12:44:11;;;;;;;17.08;3.92;;;24.50;99.90;;;;;;5049881;28;20213;-78
2023/03/11 12:47:21;;;;;;;15.63;3.70;;;24.40;99.90;;;;;;5052515;28;20253;-79
2023/03/11 12:49:54;;;;;;;20.10;4.15;;;24.30;99.90;;;;;;5050259;28;20206;-79
2023/03/11 12:52:33;;;;;;;16.55;4.10;;;24.30;99.90;;;;;;5048488;28;20235;-79
2023/03/11 12:55:32;;;;;;;14.48;3.35;;;24.30;99.90;;;;;;5044637;28;20541;-79
2023/03/11 12:58:34;;;;;;;18.50;3.55;;;24.30;99.90;;;;;;5043876;28;20628;-78
2023/03/11 13:01:33;;;;;;;12.48;3.10;;;24.20;99.90;;;;;;5040292;28;20616;-79
2023/03/11 13:04:21;;;;;;;17.13;3.40;;;24.20;99.90;;;;;;5014663;28;20210;-79
2023/03/11 13:07:20;;;;;;;18.55;3.63;;;24.20;99.90;;;;;;5046612;28;20208;-79
2023/03/11 13:10:05;;;;;;;17.98;3.25;;;24.10;99.90;;;;;;5037688;28;20228;-79
2023/03/11 13:12:46;;;;;;;16.10;3.17;;;24.20;99.90;;;;;;5046805;28;20198;-79
2023/03/11 13:15:40;;;;;;;11.45;2.85;;;24.20;99.90;;;;;;5049715;28;20214;-79
2023/03/11 13:18:24;;;;;;;11.10;4.18;;;24.20;99.90;;;;;;5016919;28;20193;-79
2023/03/11 13:21:01;;;;;;;12.73;3.47;;;24.20;99.90;;;;;;5036828;28;20203;-79
2023/03/11 13:23:36;;;;;;;15.10;3.05;;;24.10;99.90;;;;;;5036151;28;20208;-78